Terminal Aerodrome Forecast
Issued by NWS

Home | Current Version | Previous Version | Text Only | Print | Product List | Glossary On
Versions: 1 2 3 4 5 6 7 8 9 10 11 12 13
000
FTUS46 KLOX 310500 RRA
TAFOXR
TAF
KOXR 310540Z 3106/0106 VRB03KT 6SM BR BKN010
     FM310800 VRB03KT P6SM BKN150
     FM311100 05005KT P6SM BKN100
     FM311800 04006KT P6SM SCT250
     FM312000 29011KT P6SM SKC
     FM010300 31007KT P6SM SKC=

USA.gov is the U.S. government's official web portal to all federal, state and local government web resources and services.